Time;durP1;ratioP1;P1;durP2;ratioP2;P2;SDS_P1;SDS_P2;PMS_P1;PMS_P2;Temp;Humidity;BMP_temperature;BMP_pressure;BME280_temperature;BME280_humidity;BME280_pressure;Samples;Min_cycle;Max_cycle;Signal;HPM_P1;HPM_P2
2021/03/21 00:01:17;;;;;;;63.83;32.07;;;77.10;1971.20;;;;;;5075303;28;20415;-63
2021/03/21 00:03:43;;;;;;;256.27;108.23;;;77.00;1945.60;;;;;;5034884;28;20038;-62
2021/03/21 00:06:09;;;;;;;141.07;64.93;;;77.00;1971.20;;;;;;5034559;28;20496;-66
2021/03/21 00:08:35;;;;;;;52.20;28.67;;;76.90;1971.20;;;;;;5034534;28;20386;-61
2021/03/21 00:11:04;;;;;;;37.63;21.37;;;76.80;1971.20;;;;;;5034663;28;20041;-62
2021/03/21 00:13:30;;;;;;;33.27;20.20;;;76.80;1996.80;;;;;;5034326;28;20017;-62
2021/03/21 00:15:58;;;;;;;31.90;20.43;;;76.80;1996.80;;;;;;5035294;28;20435;-68
2021/03/21 00:18:27;;;;;;;35.23;20.67;;;52.10;1996.80;;;;;;5035443;28;20022;-66
2021/03/21 00:20:53;;;;;;;38.17;22.50;;;52.10;2022.40;;;;;;5035657;28;20017;-66
2021/03/21 00:23:20;;;;;;;32.37;21.57;;;52.00;2022.40;;;;;;5035650;28;20029;-66
2021/03/21 00:25:46;;;;;;;38.80;23.00;;;52.00;2048.00;;;;;;5035508;28;20025;-66
2021/03/21 00:28:16;;;;;;;76.50;34.43;;;51.70;2073.60;;;;;;5035490;28;20038;-67
2021/03/21 00:30:44;;;;;;;151.47;55.37;;;51.70;2073.60;;;;;;5035666;28;20429;-66
2021/03/21 00:33:12;;;;;;;169.63;63.63;;;51.70;2073.60;;;;;;5035370;28;20017;-61
2021/03/21 00:35:39;;;;;;;152.83;68.47;;;51.70;2073.60;;;;;;5035653;28;20029;-64
2021/03/21 00:38:08;;;;;;;127.60;57.83;;;51.60;2099.20;;;;;;5035347;28;20097;-67
2021/03/21 00:40:35;;;;;;;117.70;56.93;;;51.60;2099.20;;;;;;5035413;28;20053;-67
2021/03/21 00:43:02;;;;;;;88.53;45.53;;;51.60;2099.20;;;;;;5035549;28;20026;-67
2021/03/21 00:45:28;;;;;;;58.10;32.13;;;51.50;2099.20;;;;;;5035522;28;20498;-62
2021/03/21 00:47:55;;;;;;;46.10;26.53;;;51.50;2099.20;;;;;;5035404;28;20035;-67
2021/03/21 00:50:27;;;;;;;37.90;22.33;;;51.50;2099.20;;;;;;5035014;28;20037;-66
2021/03/21 00:52:52;;;;;;;32.80;20.23;;;51.50;2073.60;;;;;;5035064;28;20360;-63
2021/03/21 00:55:18;;;;;;;33.27;19.73;;;51.50;2073.60;;;;;;5035070;28;20078;-62
2021/03/21 00:57:44;;;;;;;31.63;19.07;;;51.60;2048.00;;;;;;5035034;28;20022;-69
2021/03/21 01:00:16;;;;;;;31.13;20.37;;;51.60;2048.00;;;;;;5034880;28;20029;-66
2021/03/21 01:02:42;;;;;;;28.80;18.87;;;51.60;2048.00;;;;;;5060987;28;20044;-62
2021/03/21 01:05:16;;;;;;;32.80;20.20;;;51.60;2048.00;;;;;;5072723;28;20480;-61
2021/03/21 01:07:42;;;;;;;31.27;19.40;;;51.60;2048.00;;;;;;5072767;28;20025;-64
2021/03/21 01:10:08;;;;;;;29.57;18.53;;;51.60;2048.00;;;;;;5072627;28;20075;-62
2021/03/21 01:12:34;;;;;;;31.03;20.60;;;51.60;2048.00;;;;;;5072622;28;20492;-62
2021/03/21 01:15:00;;;;;;;27.60;18.77;;;51.60;2048.00;;;;;;5072560;28;20437;-67
2021/03/21 01:17:26;;;;;;;31.07;19.33;;;51.70;2048.00;;;;;;5073953;28;20069;-66
2021/03/21 01:19:52;;;;;;;31.83;19.17;;;51.60;2048.00;;;;;;5074524;28;20081;-66
2021/03/21 01:22:18;;;;;;;29.57;19.83;;;51.60;2022.40;;;;;;5074353;28;20016;-62
2021/03/21 01:24:44;;;;;;;30.33;19.30;;;51.60;2022.40;;;;;;5074330;28;20023;-67
2021/03/21 01:27:10;;;;;;;29.37;18.43;;;51.50;2048.00;;;;;;5074284;28;20122;-62
2021/03/21 01:29:36;;;;;;;29.70;19.60;;;51.50;2048.00;;;;;;5074113;28;20082;-67
2021/03/21 01:32:07;;;;;;;31.07;19.30;;;51.40;2048.00;;;;;;5073371;28;20032;-66
2021/03/21 01:34:33;;;;;;;30.47;19.63;;;51.50;2048.00;;;;;;5074129;28;20024;-61
2021/03/21 01:36:59;;;;;;;29.80;18.73;;;51.50;2048.00;;;;;;5074081;28;20028;-62
2021/03/21 01:39:26;;;;;;;28.20;18.03;;;51.40;2048.00;;;;;;5074081;28;20016;-67
2021/03/21 01:41:59;;;;;;;30.00;18.83;;;51.40;2048.00;;;;;;5074245;28;20426;-66
2021/03/21 01:44:25;;;;;;;32.40;19.88;;;51.40;2048.00;;;;;;5073963;28;20024;-69
2021/03/21 01:46:51;;;;;;;32.73;19.77;;;51.50;2048.00;;;;;;5072521;28;20028;-66
2021/03/21 01:49:22;;;;;;;30.43;19.83;;;51.50;2048.00;;;;;;5073890;28;20062;-63
2021/03/21 01:51:50;;;;;;;32.87;19.83;;;51.50;2048.00;;;;;;5074151;28;20032;-62
2021/03/21 01:54:20;;;;;;;33.50;20.57;;;51.40;2048.00;;;;;;5074124;28;20025;-67
2021/03/21 01:56:47;;;;;;;31.13;20.27;;;51.40;2073.60;;;;;;5073732;28;20020;-67
2021/03/21 01:59:21;;;;;;;35.30;21.87;;;51.30;2073.60;;;;;;5073650;28;20111;-66
2021/03/21 02:01:48;;;;;;;41.57;24.53;;;51.30;2073.60;;;;;;5073691;28;20037;-63
2021/03/21 02:04:14;;;;;;;43.93;25.50;;;51.30;2073.60;;;;;;5073604;28;20037;-66
2021/03/21 02:07:07;;;;;;;34.13;22.03;;;51.30;2073.60;;;;;;5073909;28;20055;-67
2021/03/21 02:09:42;;;;;;;32.30;20.43;;;51.20;2073.60;;;;;;5074111;28;20047;-66
2021/03/21 02:12:42;;;;;;;30.63;20.43;;;51.20;2073.60;;;;;;5073619;28;20035;-63
2021/03/21 02:15:25;;;;;;;32.50;21.47;;;51.30;2073.60;;;;;;5073455;28;20473;-67
2021/03/21 02:18:02;;;;;;;31.58;20.88;;;51.20;2073.60;;;;;;5073608;28;20025;-66
2021/03/21 02:21:08;;;;;;;33.80;21.77;;;51.20;2073.60;;;;;;5073604;28;20056;-65
2021/03/21 02:23:52;;;;;;;36.27;21.70;;;51.20;2073.60;;;;;;5073450;28;20052;-67
2021/03/21 02:26:30;;;;;;;;;;;51.20;2073.60;;;;;;5073989;28;20033;-66
2021/03/21 02:29:14;;;;;;;32.63;19.37;;;51.20;2073.60;;;;;;5073529;28;20424;-67
2021/03/21 02:32:09;;;;;;;32.97;20.43;;;51.20;2073.60;;;;;;5073555;28;20039;-66
2021/03/21 02:34:46;;;;;;;33.70;21.43;;;26.50;2048.00;;;;;;5073620;28;20028;-67
2021/03/21 02:37:32;;;;;;;31.23;20.67;;;26.50;2048.00;;;;;;5073343;28;20029;-66
2021/03/21 02:40:13;;;;;;;35.43;22.73;;;26.50;2073.60;;;;;;5073414;28;20016;-66
2021/03/21 02:42:45;;;;;;;32.73;21.40;;;26.40;2073.60;;;;;;5076741;28;20027;-62
2021/03/21 02:45:24;;;;;;;33.93;21.53;;;26.30;2073.60;;;;;;5079944;28;20012;-66
2021/03/21 02:47:51;;;;;;;33.13;20.70;;;26.40;2073.60;;;;;;5080111;28;20033;-66
2021/03/21 02:50:35;;;;;;;35.23;22.47;;;26.30;2073.60;;;;;;5079725;28;20489;-65
2021/03/21 02:53:04;;;;;;;;;;;26.30;2073.60;;;;;;5080550;28;20020;-66
2021/03/21 02:55:38;;;;;;;35.50;21.17;;;26.20;2073.60;;;;;;5079717;28;20042;-62
2021/03/21 02:58:19;;;;;;;32.85;20.40;;;26.20;2099.20;;;;;;5079837;28;20035;-61
2021/03/21 03:00:58;;;;;;;34.13;21.30;;;26.10;2073.60;;;;;;5079750;28;20024;-66
2021/03/21 03:03:26;;;;;;;36.97;22.07;;;26.10;2073.60;;;;;;5080331;28;20056;-66
2021/03/21 03:05:55;;;;;;;35.03;22.40;;;26.10;2073.60;;;;;;5079680;28;20028;-66
2021/03/21 03:08:48;;;;;;;37.57;22.87;;;26.10;2073.60;;;;;;5079635;28;20056;-62
2021/03/21 03:11:18;;;;;;;35.33;22.30;;;26.10;2073.60;;;;;;5079885;28;20043;-68
2021/03/21 03:14:03;;;;;;;36.07;22.47;;;26.10;2073.60;;;;;;5079909;28;20027;-67
2021/03/21 03:16:36;;;;;;;33.00;22.57;;;26.00;2099.20;;;;;;5079623;28;20477;-62
2021/03/21 03:19:12;;;;;;;37.97;24.58;;;25.90;2099.20;;;;;;5079954;28;20032;-66
2021/03/21 03:21:59;;;;;;;35.20;23.07;;;25.80;2124.80;;;;;;5079667;28;20025;-62
2021/03/21 03:24:46;;;;;;;34.73;22.60;;;25.80;2124.80;;;;;;5079619;28;20107;-66
2021/03/21 03:27:22;;;;;;;33.07;20.87;;;25.70;2124.80;;;;;;5079797;28;20095;-66
2021/03/21 03:29:59;;;;;;;35.93;22.17;;;25.70;2124.80;;;;;;5079401;28;20051;-62
2021/03/21 03:32:27;;;;;;;35.87;23.63;;;25.80;2124.80;;;;;;5078263;28;20040;-67
2021/03/21 03:34:57;;;;;;;35.97;22.23;;;0.90;2124.80;;;;;;5079475;28;20020;-67
2021/03/21 03:37:27;;;;;;;33.93;21.03;;;25.80;2124.80;;;;;;5079187;28;20025;-67
2021/03/21 03:39:53;;;;;;;38.33;22.97;;;26.10;2099.20;;;;;;5079630;28;20048;-66
2021/03/21 03:42:46;;;;;;;38.30;23.37;;;25.90;2099.20;;;;;;5079693;28;20025;-66
2021/03/21 03:45:37;;;;;;;39.87;21.90;;;26.00;2099.20;;;;;;5079664;28;20071;-67
2021/03/21 03:48:31;;;;;;;36.53;22.23;;;26.00;2099.20;;;;;;5079404;28;20034;-66
2021/03/21 03:51:26;;;;;;;41.10;22.85;;;26.10;2099.20;;;;;;5079661;28;20388;-65
2021/03/21 03:53:51;;;;;;;;;;;26.10;2099.20;;;;;;5067075;28;20024;-66
2021/03/21 03:56:43;;;;;;;47.27;25.10;;;26.10;2099.20;;;;;;5076148;28;19909;-65
2021/03/21 03:59:29;;;;;;;42.20;24.93;;;26.00;2099.20;;;;;;5076462;28;20095;-67
2021/03/21 04:02:13;;;;;;;37.97;24.07;;;26.00;2099.20;;;;;;5076080;28;20047;-67
2021/03/21 04:05:02;;;;;;;36.45;22.25;;;26.00;2099.20;;;;;;5076005;28;20422;-61
2021/03/21 04:07:43;;;;;;;37.43;22.53;;;25.90;2099.20;;;;;;5075865;28;20089;-61
2021/03/21 04:10:35;;;;;;;35.80;21.80;;;25.90;2073.60;;;;;;5075738;28;20098;-62
2021/03/21 04:13:19;;;;;;;36.03;23.13;;;25.90;2099.20;;;;;;5075767;28;20047;-67
2021/03/21 04:15:47;;;;;;;;;;;25.90;2099.20;;;;;;5076451;28;20031;-62
2021/03/21 04:18:48;;;;;;;38.13;22.07;;;25.90;2099.20;;;;;;5075742;28;20432;-65
2021/03/21 04:21:40;;;;;;;34.20;22.07;;;25.80;2099.20;;;;;;5076039;28;20534;-68
2021/03/21 04:24:23;;;;;;;35.50;22.53;;;25.70;2099.20;;;;;;5068742;28;20041;-67
2021/03/21 04:26:57;;;;;;;38.57;24.53;;;25.60;2099.20;;;;;;5075981;28;20378;-66
2021/03/21 04:29:46;;;;;;;42.47;24.02;;;25.60;2099.20;;;;;;5076428;28;20017;-63
2021/03/21 04:32:18;;;;;;;37.83;22.60;;;25.60;2099.20;;;;;;5075875;28;20386;-67
2021/03/21 04:34:49;;;;;;;37.73;22.30;;;25.60;2099.20;;;;;;5075838;28;20021;-67
2021/03/21 04:37:17;;;;;;;37.17;22.63;;;25.60;2099.20;;;;;;5075778;28;20028;-67
2021/03/21 04:39:44;;;;;;;35.30;21.87;;;25.60;2099.20;;;;;;5075325;28;20106;-67
2021/03/21 04:42:33;;;;;;;38.10;23.27;;;0.90;2099.20;;;;;;5075606;28;20047;-61
2021/03/21 04:45:10;;;;;;;42.17;24.10;;;0.90;2099.20;;;;;;5075138;28;20099;-66
2021/03/21 04:47:50;;;;;;;42.90;25.97;;;25.60;2099.20;;;;;;5075245;28;20029;-66
2021/03/21 04:50:20;;;;;;;48.90;27.90;;;0.90;2099.20;;;;;;5075336;28;20032;-66
2021/03/21 04:52:54;;;;;;;54.17;28.33;;;25.60;2073.60;;;;;;5075281;28;20048;-63
2021/03/21 04:55:31;;;;;;;45.65;27.33;;;25.60;2073.60;;;;;;5074975;28;20033;-66
2021/03/21 04:58:03;;;;;;;46.07;25.03;;;25.60;2073.60;;;;;;5074848;28;20040;-62
2021/03/21 05:00:34;;;;;;;35.43;22.13;;;0.90;2073.60;;;;;;5075203;28;20017;-61
2021/03/21 05:03:29;;;;;;;33.10;21.17;;;0.80;2073.60;;;;;;5074591;28;20079;-67
2021/03/21 05:06:03;;;;;;;31.27;20.80;;;0.90;2073.60;;;;;;5072153;28;20060;-66
2021/03/21 05:08:33;;;;;;;;;;;0.90;2073.60;;;;;;5075311;28;20020;-65
2021/03/21 05:11:02;;;;;;;33.93;21.87;;;0.90;2073.60;;;;;;5074616;28;20361;-66
2021/03/21 05:13:33;;;;;;;37.20;22.23;;;25.60;2073.60;;;;;;5074939;28;20047;-61
2021/03/21 05:16:34;;;;;;;41.50;21.93;;;25.60;2073.60;;;;;;5074912;28;20025;-65
2021/03/21 05:19:25;;;;;;;43.20;24.43;;;25.60;2073.60;;;;;;5075142;28;20060;-66
2021/03/21 05:22:05;;;;;;;49.77;26.23;;;25.60;2073.60;;;;;;5074443;28;20024;-66
2021/03/21 05:25:04;;;;;;;46.23;24.30;;;25.60;2073.60;;;;;;5074320;28;20028;-66
2021/03/21 05:27:43;;;;;;;40.53;22.57;;;25.70;2048.00;;;;;;5040714;28;20391;-67
2021/03/21 05:30:15;;;;;;;34.33;21.57;;;25.60;2048.00;;;;;;5074209;28;20028;-64
2021/03/21 05:32:42;;;;;;;39.27;22.73;;;25.70;2048.00;;;;;;5074506;28;20074;-66
2021/03/21 05:35:15;;;;;;;34.40;20.93;;;25.70;2048.00;;;;;;5074133;28;20064;-61
2021/03/21 05:38:19;;;;;;;31.33;20.40;;;25.70;2048.00;;;;;;5074467;28;20443;-67
2021/03/21 05:41:22;;;;;;;31.58;19.58;;;25.80;2048.00;;;;;;5050414;28;20033;-67
2021/03/21 05:43:59;;;;;;;33.60;19.63;;;25.80;2048.00;;;;;;5074105;28;20020;-62
2021/03/21 05:46:43;;;;;;;32.87;20.47;;;25.80;2048.00;;;;;;5073951;28;20469;-67
2021/03/21 05:50:05;;;;;;;31.88;20.00;;;25.80;2048.00;;;;;;5074068;28;20021;-62
2021/03/21 05:53:06;;;;;;;30.93;18.93;;;25.80;2048.00;;;;;;5012152;28;20044;-66
2021/03/21 05:56:00;;;;;;;35.77;22.03;;;25.90;2048.00;;;;;;5012186;28;20069;-66
2021/03/21 05:59:04;;;;;;;32.53;20.35;;;25.90;2048.00;;;;;;5067160;28;20044;-61
2021/03/21 06:02:00;;;;;;;35.10;20.27;;;25.90;2048.00;;;;;;5073928;28;20040;-68
2021/03/21 06:04:58;;;;;;;32.90;22.07;;;26.00;2022.40;;;;;;5073995;28;20040;-67
2021/03/21 06:07:30;;;;;;;32.37;19.10;;;26.10;2022.40;;;;;;5073728;28;20063;-67
2021/03/21 06:10:26;;;;;;;30.47;19.87;;;26.10;2022.40;;;;;;5073509;28;20028;-67
2021/03/21 06:13:01;;;;;;;32.97;21.00;;;26.20;2022.40;;;;;;5073867;28;20143;-67
2021/03/21 06:16:04;;;;;;;32.57;21.10;;;26.30;1996.80;;;;;;5073789;28;20028;-67
2021/03/21 06:18:33;;;;;;;33.13;19.90;;;26.30;2022.40;;;;;;5073431;28;20025;-68
2021/03/21 06:20:59;;;;;;;28.33;17.83;;;26.40;1996.80;;;;;;5073464;28;20469;-66
2021/03/21 06:23:41;;;;;;;28.57;18.80;;;26.40;1971.20;;;;;;5073794;28;20054;-67
2021/03/21 06:26:13;;;;;;;31.77;18.17;;;26.50;1971.20;;;;;;5072221;28;20024;-65
2021/03/21 06:29:16;;;;;;;28.70;19.27;;;26.50;1945.60;;;;;;5073823;28;20154;-62
2021/03/21 06:31:45;;;;;;;27.80;18.30;;;26.50;1971.20;;;;;;5073218;28;20505;-67
2021/03/21 06:34:16;;;;;;;35.03;20.27;;;51.20;1996.80;;;;;;5073718;28;20021;-66
2021/03/21 06:37:00;;;;;;;33.10;19.20;;;51.30;1971.20;;;;;;5073425;28;20481;-67
2021/03/21 06:39:37;;;;;;;30.08;20.33;;;51.40;1971.20;;;;;;5073468;28;20024;-68
2021/03/21 06:42:03;;;;;;;35.30;20.97;;;51.40;1971.20;;;;;;5073616;28;20056;-67
2021/03/21 06:44:49;;;;;;;30.97;20.33;;;51.70;1945.60;;;;;;5073642;28;20048;-66
2021/03/21 06:47:24;;;;;;;25.90;19.20;;;102.60;1766.40;;;;;;5073252;28;20155;-68
2021/03/21 06:50:21;;;;;;;42.47;22.03;;;179.60;1459.20;;;;;;5073540;28;20086;-67
2021/03/21 06:53:02;;;;;;;30.85;21.73;;;231.00;1254.40;;;;;;5073237;28;20465;-64
2021/03/21 06:55:34;;;;;;;32.03;22.80;;;282.20;1075.20;;;;;;5073345;28;20079;-68
2021/03/21 06:58:33;;;;;;;24.30;20.52;;;332.90;998.40;;;;;;5073462;28;20021;-67
2021/03/21 07:01:02;;;;;;;23.60;19.02;;;358.90;921.60;;;;;;5073210;28;20114;-66
2021/03/21 07:04:04;;;;;;;23.58;19.17;;;384.70;819.20;;;;;;5073030;28;20041;-63
2021/03/21 07:06:51;;;;;;;25.88;19.73;;;410.30;742.40;;;;;;5073429;28;20047;-68
2021/03/21 07:09:41;;;;;;;22.35;18.75;;;435.70;691.20;;;;;;5073396;28;20028;-67
2021/03/21 07:12:31;;;;;;;23.23;19.85;;;461.40;691.20;;;;;;5073456;28;20047;-69
2021/03/21 07:15:25;;;;;;;25.58;19.80;;;486.80;640.00;;;;;;5073168;28;20157;-69
2021/03/21 07:18:28;;;;;;;19.95;17.85;;;487.10;640.00;;;;;;5073082;28;20032;-68
2021/03/21 07:21:05;;;;;;;20.73;18.15;;;486.80;640.00;;;;;;5073334;28;20032;-69
2021/03/21 07:23:49;;;;;;;51.85;37.70;;;487.30;614.40;;;;;;5073543;28;20031;-69
2021/03/21 07:26:15;;;;;;;;;;;487.10;614.40;;;;;;5073460;28;20027;-69
2021/03/21 07:29:08;;;;;;;23.40;19.45;;;512.10;614.40;;;;;;5073417;28;19999;-67
2021/03/21 07:31:33;;;;;;;25.30;18.55;;;512.40;588.80;;;;;;5077385;28;20064;-69
2021/03/21 07:34:19;;;;;;;21.02;18.30;;;537.60;588.80;;;;;;5076611;28;20048;-62
2021/03/21 07:37:07;;;;;;;25.85;19.75;;;538.00;588.80;;;;;;5076413;28;20028;-69
2021/03/21 07:40:21;;;;;;;22.25;18.60;;;537.90;563.20;;;;;;5076798;28;20113;-69
2021/03/21 07:43:02;;;;;;;23.15;18.40;;;512.40;563.20;;;;;;5076433;28;20035;-64
2021/03/21 07:45:46;;;;;;;21.42;17.58;;;486.50;640.00;;;;;;5076670;28;20100;-62
2021/03/21 07:48:30;;;;;;;24.73;18.33;;;410.40;691.20;;;;;;5076696;28;20040;-69
2021/03/21 07:51:17;;;;;;;26.85;18.58;;;359.10;793.60;;;;;;5076220;28;20033;-69
2021/03/21 07:54:19;;;;;;;30.63;21.70;;;333.40;896.00;;;;;;5076291;28;20027;-69
2021/03/21 07:56:50;;;;;;;26.73;19.52;;;307.60;947.20;;;;;;5073331;28;20108;-68
2021/03/21 07:59:26;;;;;;;26.20;18.25;;;282.30;972.80;;;;;;5076511;28;20532;-68
2021/03/21 08:01:52;;;;;;;25.27;18.83;;;281.60;1024.00;;;;;;5075897;28;20032;-63
2021/03/21 08:04:32;;;;;;;26.30;18.38;;;256.40;1024.00;;;;;;5076064;28;20119;-67
2021/03/21 08:07:21;;;;;;;28.23;20.90;;;256.00;1075.20;;;;;;5075969;28;20029;-62
2021/03/21 08:09:48;;;;;;;53.17;33.83;;;231.00;1100.80;;;;;;5075826;28;20024;-67
2021/03/21 08:12:21;;;;;;;66.57;42.00;;;230.70;1152.00;;;;;;5075876;28;20055;-68
2021/03/21 08:15:14;;;;;;;37.05;26.23;;;230.70;1177.60;;;;;;5076076;28;20025;-67
2021/03/21 08:17:50;;;;;;;33.90;25.67;;;230.50;1177.60;;;;;;5075799;28;20029;-69
2021/03/21 08:20:22;;;;;;;33.58;22.98;;;230.40;1177.60;;;;;;5075852;28;20020;-68
2021/03/21 08:22:50;;;;;;;29.45;21.45;;;205.70;1203.20;;;;;;5076014;28;20036;-67
2021/03/21 08:25:24;;;;;;;30.80;20.88;;;205.40;1228.80;;;;;;5076515;28;20070;-69
2021/03/21 08:27:53;;;;;;;25.33;18.48;;;205.30;1254.40;;;;;;5075696;28;20557;-68
2021/03/21 08:30:22;;;;;;;34.28;23.05;;;205.20;1254.40;;;;;;5075645;28;20078;-62
2021/03/21 08:32:56;;;;;;;29.98;21.55;;;205.20;1280.00;;;;;;5075559;28;20024;-62
2021/03/21 08:35:34;;;;;;;29.83;20.58;;;205.10;1280.00;;;;;;5075836;28;20028;-68
2021/03/21 08:38:21;;;;;;;28.48;20.42;;;204.90;1305.60;;;;;;5075432;28;20027;-67
2021/03/21 08:40:47;;;;;;;28.63;19.42;;;180.10;1331.20;;;;;;5083229;28;20073;-69
2021/03/21 08:43:21;;;;;;;28.08;20.23;;;204.80;1305.60;;;;;;5095630;28;20035;-68
2021/03/21 08:45:49;;;;;;;28.58;21.10;;;205.00;1305.60;;;;;;5095299;28;20073;-63
2021/03/21 08:48:25;;;;;;;31.30;20.70;;;205.00;1331.20;;;;;;5095378;28;20046;-64
2021/03/21 08:50:53;;;;;;;33.13;22.02;;;204.90;1356.80;;;;;;5095322;28;20484;-67
2021/03/21 08:53:34;;;;;;;34.03;23.15;;;180.10;1331.20;;;;;;5095435;28;20039;-68
2021/03/21 08:56:14;;;;;;;29.83;20.25;;;180.00;1356.80;;;;;;5095303;28;20032;-68
2021/03/21 08:58:41;;;;;;;62.40;36.60;;;179.90;1356.80;;;;;;5095503;28;20035;-67
2021/03/21 09:01:21;;;;;;;38.22;24.42;;;179.80;1356.80;;;;;;5095233;28;20078;-68
2021/03/21 09:03:48;;;;;;;58.95;34.55;;;179.70;1408.00;;;;;;5095173;28;20119;-67
2021/03/21 09:06:33;;;;;;;40.30;28.58;;;179.70;1382.40;;;;;;5094088;28;20111;-68
2021/03/21 09:09:21;;;;;;;53.90;34.10;;;179.80;1382.40;;;;;;5089326;28;20012;-69
2021/03/21 09:11:59;;;;;;;44.08;27.92;;;179.90;1356.80;;;;;;5091440;28;20066;-68
2021/03/21 09:14:29;;;;;;;44.70;30.52;;;180.00;1382.40;;;;;;5090445;28;20032;-68
2021/03/21 09:16:58;;;;;;;60.45;34.55;;;180.10;1356.80;;;;;;5092374;28;20055;-69
2021/03/21 09:19:31;;;;;;;61.15;39.15;;;180.00;1356.80;;;;;;5090001;28;20067;-68
2021/03/21 09:21:58;;;;;;;63.92;38.58;;;180.10;1382.40;;;;;;5087437;28;20044;-66
2021/03/21 09:24:28;;;;;;;51.97;32.75;;;204.80;1331.20;;;;;;5082552;28;20063;-69
2021/03/21 09:27:14;;;;;;;78.65;45.35;;;204.90;1331.20;;;;;;5090759;28;20411;-66
2021/03/21 09:29:42;;;;;;;57.03;34.92;;;204.90;1331.20;;;;;;5092745;28;20036;-65
2021/03/21 09:32:23;;;;;;;70.43;41.55;;;205.00;1305.60;;;;;;5074489;28;20036;-66
2021/03/21 09:35:11;;;;;;;97.80;58.75;;;205.00;1331.20;;;;;;5089995;28;20024;-67
2021/03/21 09:37:40;;;;;;;81.80;48.50;;;204.90;1331.20;;;;;;5094597;28;20102;-67
2021/03/21 09:40:26;;;;;;;92.78;54.28;;;205.00;1305.60;;;;;;5094506;28;20030;-67
2021/03/21 09:42:52;;;;;;;53.00;29.80;;;204.90;1305.60;;;;;;5094595;28;20074;-68
2021/03/21 09:45:19;;;;;;;46.53;31.67;;;204.90;1305.60;;;;;;5094203;28;20020;-67
2021/03/21 09:47:53;;;;;;;305.85;130.55;;;204.90;1305.60;;;;;;5093989;28;20448;-67
2021/03/21 09:50:41;;;;;;;192.15;79.22;;;204.90;1305.60;;;;;;5093860;28;20115;-70
2021/03/21 09:53:41;;;;;;;69.13;44.47;;;204.90;1305.60;;;;;;5091362;28;20365;-66
2021/03/21 09:56:19;;;;;;;52.95;34.30;;;204.90;1305.60;;;;;;5091485;28;20027;-68
2021/03/21 09:58:52;;;;;;;51.05;30.95;;;204.90;1305.60;;;;;;5087931;28;20030;-68
2021/03/21 10:01:38;;;;;;;65.60;33.60;;;204.90;1280.00;;;;;;5091085;28;20428;-62
2021/03/21 10:04:30;;;;;;;60.83;33.75;;;204.90;1305.60;;;;;;5087703;28;20065;-68
2021/03/21 10:07:01;;;;;;;49.78;36.22;;;204.90;1331.20;;;;;;5091072;28;20024;-66
2021/03/21 10:09:31;;;;;;;31.73;20.50;;;204.90;1280.00;;;;;;5086828;28;20047;-65
2021/03/21 10:12:06;;;;;;;35.90;24.00;;;204.90;1280.00;;;;;;5073577;28;20415;-64
2021/03/21 10:14:32;;;;;;;42.17;24.48;;;204.90;1305.60;;;;;;5073923;28;20025;-62
2021/03/21 10:17:18;;;;;;;30.52;21.58;;;204.90;1305.60;;;;;;5073549;28;20412;-62
2021/03/21 10:19:55;;;;;;;38.72;25.40;;;205.00;1254.40;;;;;;5066401;28;20427;-66
2021/03/21 10:22:21;;;;;;;39.45;26.48;;;205.00;1254.40;;;;;;5075971;28;20020;-68
2021/03/21 10:25:22;;;;;;;37.28;27.15;;;205.00;1280.00;;;;;;5082101;28;20104;-65
2021/03/21 10:27:51;;;;;;;42.85;28.33;;;205.00;1305.60;;;;;;5073284;28;20047;-63
2021/03/21 10:30:24;;;;;;;30.15;23.15;;;205.00;1280.00;;;;;;5073257;28;20066;-62
2021/03/21 10:32:59;;;;;;;47.28;27.65;;;205.10;1280.00;;;;;;5075950;28;20035;-67
2021/03/21 10:35:26;;;;;;;61.58;35.25;;;205.10;1254.40;;;;;;5091378;28;20499;-67
2021/03/21 10:38:00;;;;;;;31.95;19.77;;;205.10;1254.40;;;;;;5093498;28;20098;-63
2021/03/21 10:40:25;;;;;;;27.10;18.55;;;205.10;1254.40;;;;;;5073402;28;20024;-67
2021/03/21 10:42:53;;;;;;;38.53;25.95;;;205.00;1254.40;;;;;;5073482;28;20044;-62
2021/03/21 10:45:33;;;;;;;27.77;19.90;;;205.10;1280.00;;;;;;5073126;28;20028;-67
2021/03/21 10:48:04;;;;;;;31.83;22.27;;;205.00;1280.00;;;;;;5073116;28;20040;-67
2021/03/21 10:50:29;;;;;;;36.55;22.98;;;205.10;1254.40;;;;;;5075612;28;20032;-67
2021/03/21 10:53:10;;;;;;;69.70;46.90;;;205.10;1228.80;;;;;;5081985;28;20037;-68
2021/03/21 10:55:38;;;;;;;59.15;38.17;;;205.20;1228.80;;;;;;5082474;28;20054;-66
2021/03/21 10:58:29;;;;;;;69.82;42.40;;;205.30;1254.40;;;;;;5073973;28;20565;-66
2021/03/21 11:01:17;;;;;;;62.17;36.33;;;205.30;1254.40;;;;;;5104469;28;20024;-66
2021/03/21 11:04:13;;;;;;;37.72;23.77;;;205.30;1203.20;;;;;;5115553;28;20035;-65
2021/03/21 11:06:50;;;;;;;33.75;22.17;;;205.40;1152.00;;;;;;5109298;28;20031;-67
2021/03/21 11:09:17;;;;;;;28.88;19.95;;;205.30;1177.60;;;;;;5117527;28;20072;-66
2021/03/21 11:11:47;;;;;;;34.03;21.92;;;205.30;1177.60;;;;;;5117345;28;20597;-67
2021/03/21 11:14:15;;;;;;;32.40;19.55;;;205.40;1177.60;;;;;;5117368;28;20499;-67
2021/03/21 11:16:52;;;;;;;35.00;22.73;;;205.40;1177.60;;;;;;5095928;28;20480;-67
2021/03/21 11:19:19;;;;;;;38.90;21.40;;;205.40;1152.00;;;;;;5096930;28;20464;-66
2021/03/21 11:21:45;;;;;;;45.15;29.35;;;205.40;1152.00;;;;;;5097155;28;20035;-67
2021/03/21 11:24:23;;;;;;;31.83;21.08;;;205.40;1152.00;;;;;;5095096;28;20392;-66
2021/03/21 11:26:50;;;;;;;34.65;19.45;;;205.40;1126.40;;;;;;5096840;28;20146;-66
2021/03/21 11:29:38;;;;;;;40.30;22.20;;;205.40;1100.80;;;;;;5096329;28;20107;-66
2021/03/21 11:32:19;;;;;;;52.28;25.05;;;205.40;1126.40;;;;;;5096126;28;20084;-65
2021/03/21 11:34:57;;;;;;;41.78;23.13;;;205.40;1126.40;;;;;;5096052;28;20051;-66
2021/03/21 11:37:35;;;;;;;37.63;20.75;;;205.40;1100.80;;;;;;5093746;28;20127;-65
2021/03/21 11:40:07;;;;;;;40.75;23.65;;;205.50;1126.40;;;;;;5091993;28;20020;-66
2021/03/21 11:42:36;;;;;;;51.95;31.48;;;205.50;1126.40;;;;;;5090931;28;20024;-68
2021/03/21 11:45:20;;;;;;;51.67;30.83;;;205.50;1126.40;;;;;;5089125;28;20103;-67
2021/03/21 11:47:55;;;;;;;66.38;33.90;;;205.50;1126.40;;;;;;5085965;28;20024;-67
2021/03/21 11:50:31;;;;;;;30.42;19.65;;;205.60;1100.80;;;;;;5083267;28;20036;-66
2021/03/21 11:52:59;;;;;;;22.95;17.17;;;205.60;1100.80;;;;;;5083262;28;20036;-67
2021/03/21 11:55:51;;;;;;;149.32;68.75;;;205.50;1100.80;;;;;;5083639;28;20035;-63
2021/03/21 11:58:30;;;;;;;249.70;103.53;;;205.60;1126.40;;;;;;5090331;28;20032;-66
2021/03/21 12:00:58;;;;;;;343.92;128.85;;;205.70;1126.40;;;;;;5087219;28;20118;-65
2021/03/21 12:03:25;;;;;;;412.48;151.15;;;205.70;1100.80;;;;;;5087254;28;20042;-66
2021/03/21 12:06:06;;;;;;;250.38;95.38;;;230.40;1100.80;;;;;;5090281;28;20076;-68
2021/03/21 12:08:42;;;;;;;275.65;104.97;;;230.50;1100.80;;;;;;5084789;28;20078;-67
2021/03/21 12:11:39;;;;;;;813.33;345.23;;;230.50;1075.20;;;;;;5088098;28;20097;-63
2021/03/21 12:14:20;;;;;;;51.35;29.70;;;230.50;1100.80;;;;;;5090331;28;20039;-65
2021/03/21 12:16:46;;;;;;;418.58;141.68;;;230.60;1075.20;;;;;;5091419;28;20016;-65
2021/03/21 12:19:28;;;;;;;206.23;77.05;;;230.60;1075.20;;;;;;5093304;28;20024;-65
2021/03/21 12:22:03;;;;;;;271.95;103.32;;;230.70;1075.20;;;;;;5093858;28;20373;-63
2021/03/21 12:24:30;;;;;;;722.88;303.92;;;230.70;1049.60;;;;;;5093762;28;20036;-61
2021/03/21 12:27:02;;;;;;;429.98;145.77;;;230.80;1049.60;;;;;;5092675;28;20022;-64
2021/03/21 12:29:43;;;;;;;249.23;88.18;;;230.90;1049.60;;;;;;5093871;28;20020;-61
2021/03/21 12:32:26;;;;;;;668.30;270.95;;;230.90;1024.00;;;;;;5093749;28;20040;-62
2021/03/21 12:34:52;;;;;;;398.88;133.93;;;231.00;1049.60;;;;;;5094623;28;20027;-65
2021/03/21 12:37:28;;;;;;;155.32;57.78;;;231.00;1049.60;;;;;;5096044;28;20136;-61
2021/03/21 12:40:06;;;;;;;439.25;141.00;;;231.00;972.80;;;;;;5095976;28;20072;-65
2021/03/21 12:42:36;;;;;;;574.35;198.15;;;231.00;998.40;;;;;;5095550;28;20111;-65
2021/03/21 12:45:14;;;;;;;310.60;96.05;;;231.00;998.40;;;;;;5094308;28;20499;-65
2021/03/21 12:47:47;;;;;;;289.83;92.82;;;230.90;947.20;;;;;;5095729;28;20016;-65
2021/03/21 12:50:34;;;;;;;77.30;35.75;;;230.90;998.40;;;;;;5095373;28;20133;-66
2021/03/21 12:53:03;;;;;;;57.63;25.00;;;231.00;1024.00;;;;;;5095466;28;20475;-65
2021/03/21 12:55:29;;;;;;;402.42;119.65;;;231.00;1024.00;;;;;;5095451;28;20013;-64